Time;durP1;ratioP1;P1;durP2;ratioP2;P2;SDS_P1;SDS_P2;PMS_P1;PMS_P2;Temp;Humidity;BMP_temperature;BMP_pressure;BME280_temperature;BME280_humidity;BME280_pressure;Samples;Min_cycle;Max_cycle;Signal;HPM_P1;HPM_P2
2021/01/21 00:01:06;;;;;;;152.98;68.35;;;51.20;2227.20;;;;;;5091898;28;20020;-67
2021/01/21 00:03:33;;;;;;;141.93;61.80;;;51.20;2227.20;;;;;;5091937;28;20024;-64
2021/01/21 00:06:00;;;;;;;144.23;63.95;;;26.50;2201.60;;;;;;5091751;28;20028;-65
2021/01/21 00:08:26;;;;;;;156.60;64.25;;;26.50;2201.60;;;;;;5091052;28;20085;-67
2021/01/21 00:10:51;;;;;;;132.32;60.90;;;26.40;2201.60;;;;;;5091878;28;20036;-64
2021/01/21 00:13:17;;;;;;;143.95;62.53;;;26.40;2201.60;;;;;;5092087;28;20085;-63
2021/01/21 00:15:43;;;;;;;130.90;60.72;;;26.30;2201.60;;;;;;5092410;28;20020;-63
2021/01/21 00:18:08;;;;;;;125.13;58.50;;;26.30;2201.60;;;;;;5092368;28;20020;-64
2021/01/21 00:20:34;;;;;;;136.38;62.53;;;26.30;2201.60;;;;;;5092322;28;20031;-64
2021/01/21 00:22:59;;;;;;;131.70;59.47;;;26.20;2201.60;;;;;;5092297;28;20476;-63
2021/01/21 00:25:25;;;;;;;127.53;58.85;;;26.20;2201.60;;;;;;5092317;28;20028;-65
2021/01/21 00:27:51;;;;;;;135.98;63.55;;;26.20;2201.60;;;;;;5092305;28;20020;-63
2021/01/21 00:30:17;;;;;;;161.07;67.38;;;26.20;2201.60;;;;;;5092219;28;20081;-64
2021/01/21 00:32:43;;;;;;;138.98;65.05;;;26.10;2201.60;;;;;;5092126;28;20030;-65
2021/01/21 00:35:08;;;;;;;156.75;69.18;;;26.10;2201.60;;;;;;5092147;28;20020;-64
2021/01/21 00:37:34;;;;;;;154.45;68.65;;;26.10;2201.60;;;;;;5091963;28;20047;-64
2021/01/21 00:40:00;;;;;;;141.63;64.70;;;26.10;2201.60;;;;;;5092159;28;20044;-64
2021/01/21 00:42:26;;;;;;;150.18;70.10;;;26.10;2201.60;;;;;;5092173;28;20024;-64
2021/01/21 00:44:51;;;;;;;154.75;70.38;;;26.00;2201.60;;;;;;5092417;28;20051;-64
2021/01/21 00:47:17;;;;;;;156.25;70.97;;;26.00;2201.60;;;;;;5091935;28;20024;-64
2021/01/21 00:49:43;;;;;;;130.82;61.55;;;25.90;2201.60;;;;;;5092098;28;20062;-64
2021/01/21 00:52:08;;;;;;;127.50;56.45;;;25.90;2201.60;;;;;;5091995;28;20020;-64
2021/01/21 00:54:34;;;;;;;138.00;61.78;;;25.90;2201.60;;;;;;5091894;28;20028;-64
2021/01/21 00:57:00;;;;;;;133.15;60.35;;;25.80;2201.60;;;;;;5091712;28;20024;-64
2021/01/21 00:59:25;;;;;;;139.40;64.03;;;25.80;2201.60;;;;;;5092045;28;20024;-64
2021/01/21 01:01:51;;;;;;;129.30;56.33;;;25.70;2201.60;;;;;;5092012;28;20420;-65
2021/01/21 01:04:17;;;;;;;108.07;52.88;;;25.70;2201.60;;;;;;5092236;28;20525;-64
2021/01/21 01:06:42;;;;;;;119.93;55.00;;;25.70;2201.60;;;;;;5091863;28;20582;-64
2021/01/21 01:09:08;;;;;;;109.47;52.03;;;25.70;2201.60;;;;;;5091798;28;20058;-64
2021/01/21 01:11:33;;;;;;;111.45;53.58;;;25.70;2201.60;;;;;;5091989;28;20052;-67
2021/01/21 01:13:59;;;;;;;127.80;61.92;;;25.70;2201.60;;;;;;5091775;28;20051;-64
2021/01/21 01:16:25;;;;;;;123.05;57.38;;;25.60;2201.60;;;;;;5091687;28;20387;-64
2021/01/21 01:18:50;;;;;;;129.68;57.85;;;25.60;2201.60;;;;;;5091071;28;20034;-64
2021/01/21 01:21:16;;;;;;;130.13;59.60;;;25.60;2201.60;;;;;;5090756;28;20471;-64
2021/01/21 01:23:42;;;;;;;136.70;58.30;;;0.90;2201.60;;;;;;5090924;28;20077;-64
2021/01/21 01:26:07;;;;;;;128.48;57.80;;;0.90;2201.60;;;;;;5091424;28;20025;-64
2021/01/21 01:28:33;;;;;;;121.45;54.45;;;0.90;2201.60;;;;;;5091861;28;20078;-64
2021/01/21 01:30:58;;;;;;;119.55;56.35;;;0.90;2201.60;;;;;;5091443;28;20052;-64
2021/01/21 01:33:24;;;;;;;146.65;64.32;;;0.90;2201.60;;;;;;5091669;28;20020;-64
2021/01/21 01:35:50;;;;;;;150.70;64.78;;;0.80;2201.60;;;;;;5091406;28;20023;-64
2021/01/21 01:38:15;;;;;;;151.65;65.85;;;0.80;2201.60;;;;;;5091672;28;20076;-63
2021/01/21 01:40:41;;;;;;;128.27;54.70;;;0.70;2201.60;;;;;;5091562;28;20024;-64
2021/01/21 01:43:07;;;;;;;124.25;52.88;;;0.70;2201.60;;;;;;5091509;28;20397;-65
2021/01/21 01:45:32;;;;;;;155.82;65.50;;;0.70;2201.60;;;;;;5091758;28;20024;-65
2021/01/21 01:47:58;;;;;;;125.45;56.25;;;0.70;2201.60;;;;;;5091350;28;20025;-64
2021/01/21 01:50:24;;;;;;;116.35;54.20;;;0.70;2201.60;;;;;;5073682;28;20035;-64
2021/01/21 01:52:52;;;;;;;159.45;74.10;;;0.80;2201.60;;;;;;5091501;28;20016;-63
2021/01/21 01:55:18;;;;;;;195.32;78.93;;;0.70;2201.60;;;;;;5056801;28;20023;-63
2021/01/21 01:57:45;;;;;;;143.40;64.75;;;0.70;2201.60;;;;;;5071705;28;20029;-67
2021/01/21 02:00:11;;;;;;;159.82;63.67;;;0.70;2201.60;;;;;;5073525;28;20028;-66
2021/01/21 02:02:37;;;;;;;123.20;56.50;;;0.60;2201.60;;;;;;5091255;28;20024;-64
2021/01/21 02:05:03;;;;;;;158.52;70.07;;;0.60;2201.60;;;;;;5073368;28;20016;-65
2021/01/21 02:07:29;;;;;;;106.05;49.30;;;0.60;2201.60;;;;;;5092662;28;20024;-65
2021/01/21 02:09:55;;;;;;;102.43;49.08;;;0.60;2201.60;;;;;;5095291;28;20465;-65
2021/01/21 02:12:32;;;;;;;97.13;46.65;;;0.60;2201.60;;;;;;5060218;28;20484;-66
2021/01/21 02:15:08;;;;;;;103.82;48.65;;;0.60;2201.60;;;;;;5094934;28;20050;-64
2021/01/21 02:18:01;;;;;;;104.32;47.85;;;0.60;2201.60;;;;;;5077062;28;20035;-64
2021/01/21 02:20:54;;;;;;;94.22;46.13;;;0.60;2201.60;;;;;;5094619;28;20038;-64
2021/01/21 02:23:32;;;;;;;96.93;45.28;;;0.60;2201.60;;;;;;5094840;28;20463;-64
2021/01/21 02:26:10;;;;;;;98.30;44.38;;;0.60;2201.60;;;;;;5094779;28;20489;-65
2021/01/21 02:28:54;;;;;;;94.63;41.17;;;0.60;2201.60;;;;;;5060858;28;20032;-64
2021/01/21 02:31:39;;;;;;;85.88;40.10;;;0.60;2201.60;;;;;;5081321;28;20538;-64
2021/01/21 02:34:12;;;;;;;79.32;39.42;;;0.60;2201.60;;;;;;5076594;28;20107;-64
2021/01/21 02:36:40;;;;;;;83.72;40.92;;;0.60;2201.60;;;;;;5060211;28;20181;-64
2021/01/21 02:39:05;;;;;;;88.70;40.90;;;0.60;2201.60;;;;;;5059812;28;20362;-64
2021/01/21 02:41:32;;;;;;;84.38;39.70;;;0.60;2201.60;;;;;;5059666;28;20035;-63
2021/01/21 02:43:58;;;;;;;82.90;39.50;;;0.60;2201.60;;;;;;5094434;28;20504;-64
2021/01/21 02:46:23;;;;;;;71.40;36.08;;;0.60;2201.60;;;;;;5094280;28;20106;-66
2021/01/21 02:48:52;;;;;;;79.93;37.35;;;0.60;2201.60;;;;;;5094226;28;20111;-64
2021/01/21 02:51:46;;;;;;;84.88;40.70;;;0.60;2201.60;;;;;;5075920;28;20103;-64
2021/01/21 02:54:21;;;;;;;79.30;37.35;;;0.60;2201.60;;;;;;5077579;28;20035;-64
2021/01/21 02:56:46;;;;;;;82.03;37.95;;;0.60;2201.60;;;;;;5080454;28;20013;-64
2021/01/21 02:59:15;;;;;;;79.47;37.97;;;0.60;2201.60;;;;;;5059359;28;20424;-65
2021/01/21 03:01:41;;;;;;;80.57;39.20;;;0.60;2201.60;;;;;;5076513;28;20171;-64
2021/01/21 03:04:06;;;;;;;76.80;37.17;;;0.60;2201.60;;;;;;5059451;28;20030;-64
2021/01/21 03:06:33;;;;;;;78.07;38.70;;;0.60;2201.60;;;;;;5075871;28;20073;-64
2021/01/21 03:08:59;;;;;;;95.28;44.65;;;0.60;2201.60;;;;;;5076307;28;20442;-64
2021/01/21 03:11:25;;;;;;;93.00;42.78;;;0.60;2201.60;;;;;;5075894;28;20483;-64
2021/01/21 03:13:51;;;;;;;105.13;45.67;;;0.60;2201.60;;;;;;5093770;28;20024;-64
2021/01/21 03:16:17;;;;;;;91.95;41.20;;;0.50;2201.60;;;;;;5075669;28;20020;-65
2021/01/21 03:18:43;;;;;;;94.85;41.90;;;0.50;2201.60;;;;;;5093834;28;20020;-65
2021/01/21 03:21:08;;;;;;;81.82;40.17;;;0.50;2201.60;;;;;;5093526;28;20046;-65
2021/01/21 03:23:42;;;;;;;76.18;36.45;;;0.50;2201.60;;;;;;5093496;28;20081;-67
2021/01/21 03:26:08;;;;;;;63.30;32.67;;;0.50;2201.60;;;;;;5093340;28;20060;-66
2021/01/21 03:28:34;;;;;;;57.70;29.38;;;0.40;2201.60;;;;;;5093455;28;20016;-64
2021/01/21 03:31:00;;;;;;;57.63;30.23;;;0.40;2201.60;;;;;;5093433;28;20008;-65
2021/01/21 03:33:25;;;;;;;67.68;32.60;;;0.40;2201.60;;;;;;5093340;28;20435;-64
2021/01/21 03:35:51;;;;;;;59.08;30.60;;;0.40;2201.60;;;;;;5093204;28;20066;-64
2021/01/21 03:38:17;;;;;;;55.70;28.70;;;0.40;2201.60;;;;;;5093326;28;20028;-65
2021/01/21 03:40:42;;;;;;;58.40;27.65;;;0.40;2201.60;;;;;;5093090;28;20042;-64
2021/01/21 03:43:08;;;;;;;61.33;30.25;;;0.30;2201.60;;;;;;5093106;28;20481;-65
2021/01/21 03:45:33;;;;;;;56.25;29.58;;;0.30;2201.60;;;;;;5074974;28;20104;-65
2021/01/21 03:47:59;;;;;;;54.30;27.40;;;0.30;2201.60;;;;;;5093192;28;20063;-64
2021/01/21 03:50:25;;;;;;;49.85;25.58;;;0.30;2201.60;;;;;;5093168;28;20528;-64
2021/01/21 03:52:50;;;;;;;51.03;26.65;;;0.30;2201.60;;;;;;5093109;28;20095;-64
2021/01/21 03:55:16;;;;;;;52.85;27.30;;;0.30;2201.60;;;;;;5092891;28;20473;-64
2021/01/21 03:57:41;;;;;;;58.00;28.15;;;0.30;2201.60;;;;;;5092915;28;20031;-64
2021/01/21 04:00:08;;;;;;;51.97;26.63;;;0.30;2201.60;;;;;;5092919;28;20020;-64
2021/01/21 04:02:33;;;;;;;52.85;26.25;;;0.30;2201.60;;;;;;5092661;28;20579;-65
2021/01/21 04:04:59;;;;;;;53.05;26.65;;;0.30;2201.60;;;;;;5092953;28;20122;-65
2021/01/21 04:07:24;;;;;;;53.35;28.38;;;0.40;2201.60;;;;;;5093036;28;20032;-64
2021/01/21 04:09:50;;;;;;;47.47;23.67;;;0.40;2201.60;;;;;;5092651;28;20106;-64
2021/01/21 04:12:16;;;;;;;45.28;24.42;;;0.40;2201.60;;;;;;5092955;28;20429;-65
2021/01/21 04:14:41;;;;;;;51.50;26.70;;;0.40;2201.60;;;;;;5092828;28;20133;-64
2021/01/21 04:17:07;;;;;;;51.38;25.67;;;0.40;2201.60;;;;;;5092406;28;20469;-67
2021/01/21 04:19:32;;;;;;;53.63;28.33;;;0.50;2201.60;;;;;;5092834;28;20117;-65
2021/01/21 04:21:58;;;;;;;55.40;27.85;;;0.50;2201.60;;;;;;5092556;28;20389;-64
2021/01/21 04:24:24;;;;;;;51.90;26.63;;;0.40;2201.60;;;;;;5093048;28;20077;-66
2021/01/21 04:26:49;;;;;;;68.70;31.17;;;0.40;2201.60;;;;;;5092360;28;20024;-64
2021/01/21 04:29:15;;;;;;;56.92;27.58;;;0.40;2201.60;;;;;;5092261;28;20023;-65
2021/01/21 04:31:41;;;;;;;45.90;24.30;;;0.50;2201.60;;;;;;5092027;28;20095;-65
2021/01/21 04:34:06;;;;;;;43.47;23.58;;;0.50;2201.60;;;;;;5092180;28;20027;-67
2021/01/21 04:36:32;;;;;;;61.00;28.40;;;0.50;2201.60;;;;;;5092261;28;20036;-65
2021/01/21 04:38:57;;;;;;;49.67;25.13;;;0.60;2201.60;;;;;;5092359;28;20024;-65
2021/01/21 04:41:24;;;;;;;56.85;29.05;;;0.60;2201.60;;;;;;5092411;28;20042;-63
2021/01/21 04:43:49;;;;;;;61.80;29.80;;;0.60;2201.60;;;;;;5092344;28;20031;-64
2021/01/21 04:46:15;;;;;;;69.30;35.08;;;0.60;2201.60;;;;;;5074050;28;20107;-64
2021/01/21 04:48:40;;;;;;;53.25;28.50;;;0.60;2201.60;;;;;;5092133;28;20020;-64
2021/01/21 04:51:07;;;;;;;57.30;29.30;;;0.60;2201.60;;;;;;5057195;28;20020;-65
2021/01/21 04:53:33;;;;;;;52.33;26.75;;;0.60;2201.60;;;;;;5074181;28;20024;-65
2021/01/21 04:56:00;;;;;;;53.83;28.55;;;0.60;2201.60;;;;;;5057528;28;20130;-64
2021/01/21 04:58:35;;;;;;;48.85;26.35;;;0.60;2201.60;;;;;;5057708;28;20028;-64
2021/01/21 05:01:01;;;;;;;46.17;24.50;;;0.70;2201.60;;;;;;5074016;28;20448;-64
2021/01/21 05:03:27;;;;;;;48.13;26.50;;;0.70;2201.60;;;;;;5057286;28;20042;-66
2021/01/21 05:05:53;;;;;;;80.45;35.67;;;0.70;2201.60;;;;;;5092393;28;20027;-64
2021/01/21 05:08:20;;;;;;;71.68;35.17;;;0.60;2201.60;;;;;;5073913;28;20020;-64
2021/01/21 05:10:45;;;;;;;67.70;30.88;;;0.60;2201.60;;;;;;5091980;28;20165;-64
2021/01/21 05:13:11;;;;;;;67.65;32.20;;;0.60;2201.60;;;;;;5074000;28;20519;-64
2021/01/21 05:15:37;;;;;;;57.80;28.85;;;0.60;2201.60;;;;;;5074344;28;20047;-64
2021/01/21 05:18:02;;;;;;;70.07;32.78;;;0.70;2201.60;;;;;;5092068;28;20078;-65
2021/01/21 05:20:28;;;;;;;58.47;29.23;;;0.70;2201.60;;;;;;5057211;28;20372;-66
2021/01/21 05:23:00;;;;;;;49.50;24.25;;;0.70;2201.60;;;;;;5091627;28;20032;-65
2021/01/21 05:25:26;;;;;;;48.42;23.90;;;0.80;2201.60;;;;;;5091762;28;20024;-64
2021/01/21 05:27:53;;;;;;;47.25;25.88;;;0.80;2201.60;;;;;;5091577;28;20042;-64
2021/01/21 05:30:19;;;;;;;56.97;26.63;;;0.90;2201.60;;;;;;5056847;28;20033;-64
2021/01/21 05:32:44;;;;;;;53.80;26.05;;;0.90;2201.60;;;;;;5073988;28;20012;-67
2021/01/21 05:35:12;;;;;;;67.15;31.38;;;25.60;2201.60;;;;;;5073314;28;20419;-64
2021/01/21 05:37:40;;;;;;;69.45;31.67;;;25.60;2201.60;;;;;;5091308;28;20048;-64
2021/01/21 05:40:07;;;;;;;64.05;30.65;;;25.60;2201.60;;;;;;5073818;28;20081;-64
2021/01/21 05:42:39;;;;;;;54.47;27.15;;;25.60;2201.60;;;;;;5092999;28;20036;-65
2021/01/21 05:45:05;;;;;;;53.30;27.50;;;25.60;2201.60;;;;;;5060443;28;20016;-65
2021/01/21 05:47:31;;;;;;;60.17;28.60;;;25.60;2201.60;;;;;;5095242;28;20059;-64
2021/01/21 05:49:57;;;;;;;69.18;32.53;;;0.90;2201.60;;;;;;5095194;28;20081;-65
2021/01/21 05:52:22;;;;;;;148.77;53.30;;;0.90;2201.60;;;;;;5095477;28;20027;-65
2021/01/21 05:54:49;;;;;;;185.02;72.20;;;0.90;2201.60;;;;;;5060605;28;20114;-64
2021/01/21 05:57:15;;;;;;;112.03;45.45;;;0.90;2201.60;;;;;;5076872;28;20020;-64
2021/01/21 05:59:40;;;;;;;135.38;57.15;;;0.90;2201.60;;;;;;5077168;28;20039;-65
2021/01/21 06:02:06;;;;;;;122.60;51.85;;;0.80;2201.60;;;;;;5094154;28;20020;-64
2021/01/21 06:04:32;;;;;;;103.70;46.65;;;0.80;2201.60;;;;;;5060252;28;20061;-64
2021/01/21 06:06:58;;;;;;;118.28;48.08;;;0.80;2201.60;;;;;;5076265;28;20050;-65
2021/01/21 06:09:31;;;;;;;110.95;47.40;;;0.80;2201.60;;;;;;5093576;28;20028;-63
2021/01/21 06:11:58;;;;;;;112.95;49.10;;;0.80;2201.60;;;;;;5093546;28;20016;-64
2021/01/21 06:14:24;;;;;;;231.38;83.45;;;0.80;2201.60;;;;;;5049705;28;20416;-65
2021/01/21 06:16:54;;;;;;;127.95;54.78;;;0.90;2201.60;;;;;;5094824;28;20472;-65
2021/01/21 06:19:19;;;;;;;106.53;47.38;;;0.90;2201.60;;;;;;5077016;28;20060;-64
2021/01/21 06:21:53;;;;;;;99.60;44.42;;;0.90;2201.60;;;;;;5094727;28;20060;-64
2021/01/21 06:24:18;;;;;;;96.78;43.63;;;0.90;2201.60;;;;;;5076963;28;20381;-64
2021/01/21 06:26:48;;;;;;;102.13;47.75;;;25.60;2201.60;;;;;;5066956;28;20027;-63
2021/01/21 06:29:17;;;;;;;89.35;43.05;;;25.70;2201.60;;;;;;5085252;28;20196;-64
2021/01/21 06:31:43;;;;;;;128.13;53.83;;;25.70;2201.60;;;;;;5090661;28;20472;-64
2021/01/21 06:34:25;;;;;;;89.60;42.38;;;25.70;2201.60;;;;;;5094810;28;20012;-65
2021/01/21 06:36:52;;;;;;;82.97;39.45;;;25.80;2201.60;;;;;;5094486;28;20036;-65
2021/01/21 06:39:48;;;;;;;122.97;49.85;;;25.90;2201.60;;;;;;5076200;28;20069;-66
2021/01/21 06:42:30;;;;;;;142.57;57.05;;;26.00;2201.60;;;;;;5072740;28;20044;-64
2021/01/21 06:44:58;;;;;;;102.72;48.47;;;26.00;2201.60;;;;;;5075215;28;20059;-65
2021/01/21 06:47:24;;;;;;;103.00;47.38;;;26.10;2201.60;;;;;;5093981;28;20028;-65
2021/01/21 06:49:58;;;;;;;115.25;53.53;;;26.10;2201.60;;;;;;5093816;28;20433;-65
2021/01/21 06:52:30;;;;;;;97.65;44.22;;;26.10;2201.60;;;;;;5072792;28;20035;-65
2021/01/21 06:54:57;;;;;;;68.38;33.63;;;26.40;2201.60;;;;;;5094931;28;20020;-64
2021/01/21 06:57:35;;;;;;;60.42;29.88;;;26.50;2201.60;;;;;;5093155;28;20111;-66
2021/01/21 07:00:02;;;;;;;64.63;35.30;;;51.30;2227.20;;;;;;5093133;28;20575;-66
2021/01/21 07:02:47;;;;;;;80.47;37.60;;;51.50;2227.20;;;;;;5093219;28;20023;-65
2021/01/21 07:05:17;;;;;;;70.63;37.05;;;51.70;2227.20;;;;;;5092532;28;20107;-64
2021/01/21 07:07:55;;;;;;;132.63;61.63;;;51.80;2227.20;;;;;;5093040;28;20031;-65
2021/01/21 07:10:33;;;;;;;137.50;67.03;;;51.90;2227.20;;;;;;5091481;28;20024;-66
2021/01/21 07:13:04;;;;;;;134.48;69.10;;;52.10;2227.20;;;;;;5092214;28;20373;-66
2021/01/21 07:15:36;;;;;;;136.57;66.63;;;52.10;2227.20;;;;;;5093368;28;20028;-65
2021/01/21 07:18:05;;;;;;;126.18;62.38;;;76.80;2227.20;;;;;;5092611;28;20126;-66
2021/01/21 07:20:35;;;;;;;133.13;65.00;;;76.90;2227.20;;;;;;5092881;28;20027;-66
2021/01/21 07:23:07;;;;;;;139.48;68.30;;;77.00;2227.20;;;;;;5075785;28;20503;-65
2021/01/21 07:25:33;;;;;;;147.27;73.70;;;77.10;2201.60;;;;;;5075214;28;20115;-65
2021/01/21 07:28:07;;;;;;;150.30;80.32;;;77.20;2176.00;;;;;;5093379;28;20107;-65
2021/01/21 07:30:36;;;;;;;154.25;78.25;;;77.40;2176.00;;;;;;5093435;28;20017;-66
2021/01/21 07:33:21;;;;;;;151.98;77.57;;;77.50;2150.40;;;;;;5089664;28;20435;-65
2021/01/21 07:35:48;;;;;;;156.55;78.18;;;77.60;2124.80;;;;;;5093233;28;20016;-65
2021/01/21 07:38:45;;;;;;;143.57;76.15;;;77.70;2124.80;;;;;;5075508;28;20031;-65
2021/01/21 07:41:28;;;;;;;161.07;79.00;;;77.70;2124.80;;;;;;5084454;28;20030;-66
2021/01/21 07:43:55;;;;;;;198.18;101.05;;;77.60;2124.80;;;;;;5067885;28;20496;-65
2021/01/21 07:46:25;;;;;;;208.40;102.28;;;102.50;2099.20;;;;;;5093548;28;20035;-65
2021/01/21 07:49:22;;;;;;;195.70;97.28;;;102.70;2073.60;;;;;;5092939;28;20024;-65
2021/01/21 07:52:17;;;;;;;189.45;92.15;;;103.00;2048.00;;;;;;5087643;28;20024;-66
2021/01/21 07:54:48;;;;;;;193.35;93.78;;;103.00;2048.00;;;;;;5074654;28;20431;-65
2021/01/21 07:57:22;;;;;;;;;;;103.30;1996.80;;;;;;5092986;28;20469;-66
2021/01/21 07:59:58;;;;;;;203.35;98.18;;;128.10;1996.80;;;;;;5083781;28;19908;-65
2021/01/21 08:02:24;;;;;;;198.15;95.82;;;128.30;1996.80;;;;;;5092985;28;20069;-65
2021/01/21 08:05:00;;;;;;;197.95;95.15;;;128.60;1971.20;;;;;;5091932;28;20099;-65
2021/01/21 08:07:48;;;;;;;212.57;101.53;;;128.40;1971.20;;;;;;5092737;28;20027;-65
2021/01/21 08:10:21;;;;;;;221.35;109.50;;;128.80;1945.60;;;;;;5092882;28;20052;-65
2021/01/21 08:13:00;;;;;;;227.35;109.75;;;153.80;1920.00;;;;;;5092805;28;20473;-65
2021/01/21 08:15:26;;;;;;;256.48;124.55;;;153.90;1894.40;;;;;;5092931;28;20056;-65
2021/01/21 08:17:52;;;;;;;363.88;166.90;;;154.20;1894.40;;;;;;5092876;28;20435;-68
2021/01/21 08:20:20;;;;;;;288.83;138.10;;;179.30;1843.20;;;;;;5092733;28;20127;-65
2021/01/21 08:22:52;;;;;;;277.90;125.82;;;179.60;1792.00;;;;;;5092627;28;20032;-65
2021/01/21 08:25:18;;;;;;;242.98;115.57;;;179.80;1792.00;;;;;;5092336;28;20077;-66
2021/01/21 08:27:48;;;;;;;254.07;115.88;;;179.90;1766.40;;;;;;5092632;28;20027;-65
2021/01/21 08:30:18;;;;;;;265.45;116.95;;;179.60;1766.40;;;;;;5092447;28;20073;-65
2021/01/21 08:32:44;;;;;;;224.88;110.55;;;179.50;1792.00;;;;;;5092210;28;20028;-65
2021/01/21 08:35:12;;;;;;;219.50;105.47;;;179.70;1766.40;;;;;;5088674;28;20380;-66
2021/01/21 08:37:39;;;;;;;221.73;107.82;;;180.10;1740.80;;;;;;5057524;28;20043;-66
2021/01/21 08:40:06;;;;;;;195.95;95.18;;;180.10;1715.20;;;;;;5074051;28;20024;-65
2021/01/21 08:42:31;;;;;;;178.35;82.97;;;180.10;1715.20;;;;;;5074095;28;20070;-65
2021/01/21 08:44:57;;;;;;;156.40;75.63;;;204.80;1689.60;;;;;;5067705;28;20468;-64
2021/01/21 08:47:22;;;;;;;133.75;67.47;;;204.90;1689.60;;;;;;5090868;28;20035;-64
2021/01/21 08:49:52;;;;;;;131.02;66.43;;;205.10;1689.60;;;;;;5073730;28;20528;-65
2021/01/21 08:52:17;;;;;;;115.25;61.55;;;205.50;1638.40;;;;;;5091740;28;20020;-65
2021/01/21 08:54:52;;;;;;;150.93;70.38;;;205.70;1612.80;;;;;;5092098;28;20045;-65
2021/01/21 08:57:20;;;;;;;107.70;58.15;;;230.40;1612.80;;;;;;5090674;28;20107;-65
2021/01/21 08:59:46;;;;;;;93.20;52.30;;;230.60;1587.20;;;;;;5092166;28;20020;-65
2021/01/21 09:02:11;;;;;;;92.22;50.80;;;230.40;1612.80;;;;;;5090571;28;20499;-65
2021/01/21 09:04:38;;;;;;;67.35;40.05;;;230.40;1587.20;;;;;;5091624;28;20024;-65
2021/01/21 09:07:08;;;;;;;66.95;37.13;;;230.40;1587.20;;;;;;5091333;28;20024;-65
2021/01/21 09:09:35;;;;;;;69.13;39.53;;;205.50;1612.80;;;;;;5091359;28;20028;-65
2021/01/21 09:12:13;;;;;;;62.30;35.05;;;205.40;1638.40;;;;;;5088156;28;20065;-65
2021/01/21 09:14:39;;;;;;;57.17;32.58;;;205.50;1612.80;;;;;;5060132;28;20027;-65
2021/01/21 09:17:12;;;;;;;91.40;41.72;;;205.60;1638.40;;;;;;5093574;28;20028;-66
2021/01/21 09:19:42;;;;;;;83.55;39.42;;;205.70;1612.80;;;;;;5095892;28;20034;-65
2021/01/21 09:22:13;;;;;;;68.20;34.22;;;230.40;1612.80;;;;;;5077309;28;20012;-66
2021/01/21 09:24:57;;;;;;;63.60;33.50;;;230.60;1587.20;;;;;;5094657;28;20100;-65
2021/01/21 09:27:23;;;;;;;52.35;28.67;;;231.30;1536.00;;;;;;5094281;28;20468;-65
2021/01/21 09:29:50;;;;;;;58.78;34.55;;;256.30;1484.80;;;;;;5095327;28;20047;-65
2021/01/21 09:32:16;;;;;;;66.75;38.05;;;256.70;1459.20;;;;;;5095512;28;20016;-65
2021/01/21 09:34:58;;;;;;;77.75;43.08;;;281.70;1459.20;;;;;;5095466;28;20031;-65
2021/01/21 09:37:24;;;;;;;41.75;26.63;;;281.60;1459.20;;;;;;5095078;28;20520;-65
2021/01/21 09:39:50;;;;;;;38.95;25.20;;;281.90;1433.60;;;;;;5095462;28;20068;-64
2021/01/21 09:42:16;;;;;;;44.63;25.85;;;282.10;1408.00;;;;;;5093983;28;20103;-66
2021/01/21 09:44:42;;;;;;;80.45;48.78;;;282.20;1382.40;;;;;;5095251;28;20372;-65
2021/01/21 09:47:08;;;;;;;42.67;25.88;;;282.30;1382.40;;;;;;5095043;28;20028;-65
2021/01/21 09:49:34;;;;;;;111.30;61.38;;;307.70;1356.80;;;;;;5094774;28;20032;-65
2021/01/21 09:51:59;;;;;;;107.57;56.42;;;307.70;1356.80;;;;;;5094505;28;20020;-65
2021/01/21 09:54:25;;;;;;;101.38;58.03;;;308.10;1331.20;;;;;;5094187;28;20107;-65
2021/01/21 09:56:52;;;;;;;46.05;28.60;;;333.40;1280.00;;;;;;5093086;28;20402;-65
2021/01/21 09:59:18;;;;;;;38.22;23.13;;;358.50;1254.40;;;;;;5092957;28;20534;-64
2021/01/21 10:01:45;;;;;;;67.97;39.58;;;358.40;1254.40;;;;;;5094394;28;20082;-65
2021/01/21 10:04:10;;;;;;;32.05;20.00;;;333.50;1254.40;;;;;;5092006;28;20028;-69
2021/01/21 10:06:36;;;;;;;42.92;27.05;;;333.70;1280.00;;;;;;5092958;28;20032;-66
2021/01/21 10:09:01;;;;;;;38.35;23.55;;;333.40;1280.00;;;;;;5092658;28;20461;-65
2021/01/21 10:11:27;;;;;;;34.20;22.65;;;333.40;1305.60;;;;;;5093077;28;20020;-65
2021/01/21 10:13:53;;;;;;;31.90;22.45;;;333.70;1254.40;;;;;;5093058;28;20012;-64
2021/01/21 10:16:18;;;;;;;46.72;33.58;;;333.40;1305.60;;;;;;5091517;28;20115;-64
2021/01/21 10:18:44;;;;;;;104.88;65.60;;;358.40;1254.40;;;;;;5091556;28;20052;-66
2021/01/21 10:21:10;;;;;;;36.95;27.48;;;358.60;1228.80;;;;;;5092442;28;20051;-65
2021/01/21 10:23:36;;;;;;;39.83;32.10;;;359.10;1203.20;;;;;;5092605;28;20103;-65
2021/01/21 10:26:01;;;;;;;54.75;40.72;;;384.40;1152.00;;;;;;5092769;28;20099;-65
2021/01/21 10:28:27;;;;;;;94.05;64.78;;;409.60;1152.00;;;;;;5090885;28;20020;-66
2021/01/21 10:30:53;;;;;;;41.53;35.50;;;410.00;1100.80;;;;;;5073787;28;20024;-66
2021/01/21 10:33:18;;;;;;;47.97;35.03;;;384.80;1100.80;;;;;;5093612;28;20028;-67
2021/01/21 10:35:44;;;;;;;25.00;18.27;;;384.70;1126.40;;;;;;5093960;28;20016;-65
2021/01/21 10:38:10;;;;;;;23.95;17.42;;;384.70;1100.80;;;;;;5092849;28;20547;-68
2021/01/21 10:40:35;;;;;;;25.20;17.73;;;384.60;1100.80;;;;;;5093351;28;20024;-66
2021/01/21 10:43:01;;;;;;;28.88;19.10;;;384.80;1100.80;;;;;;5093096;28;20020;-69
2021/01/21 10:45:26;;;;;;;27.42;18.98;;;409.60;1126.40;;;;;;5093224;28;20024;-69
2021/01/21 10:47:52;;;;;;;25.15;18.58;;;384.60;1100.80;;;;;;5092926;28;20078;-64
2021/01/21 10:50:18;;;;;;;29.17;19.90;;;409.70;1100.80;;;;;;5092829;28;20381;-67
2021/01/21 10:52:44;;;;;;;28.67;22.17;;;435.20;1024.00;;;;;;5092665;28;20036;-66
2021/01/21 10:55:10;;;;;;;42.05;31.65;;;435.80;1024.00;;;;;;5092778;28;20023;-66
2021/01/21 10:57:36;;;;;;;27.98;20.83;;;435.70;998.40;;;;;;5093637;28;20022;-67
2021/01/21 11:00:02;;;;;;;90.22;75.18;;;461.20;998.40;;;;;;5094062;28;20016;-66
2021/01/21 11:02:28;;;;;;;35.58;28.98;;;461.50;947.20;;;;;;5093672;28;20496;-67
2021/01/21 11:04:54;;;;;;;29.88;23.58;;;486.40;972.80;;;;;;5075825;28;20032;-67
2021/01/21 11:07:19;;;;;;;28.85;23.75;;;487.10;947.20;;;;;;5091808;28;20031;-70
2021/01/21 11:09:45;;;;;;;28.35;22.35;;;512.40;870.40;;;;;;5093245;28;20379;-67
2021/01/21 11:12:11;;;;;;;28.10;23.90;;;512.90;870.40;;;;;;5093468;28;20026;-68
2021/01/21 11:14:38;;;;;;;27.60;21.23;;;512.10;870.40;;;;;;5093364;28;20099;-68
2021/01/21 11:17:03;;;;;;;31.55;24.83;;;512.50;870.40;;;;;;5093522;28;20052;-65
2021/01/21 11:19:29;;;;;;;32.03;27.65;;;512.40;870.40;;;;;;5091835;28;20062;-65
2021/01/21 11:21:55;;;;;;;31.33;26.00;;;512.10;896.00;;;;;;5092255;28;20031;-65
2021/01/21 11:24:20;;;;;;;25.70;19.85;;;512.90;870.40;;;;;;5092673;28;20020;-65
2021/01/21 11:26:46;;;;;;;23.73;19.40;;;538.10;819.20;;;;;;5093154;28;20438;-66
2021/01/21 11:29:12;;;;;;;33.30;24.15;;;538.20;819.20;;;;;;5093107;28;20423;-65
2021/01/21 11:31:37;;;;;;;33.08;23.67;;;512.20;870.40;;;;;;5093092;28;20455;-66
2021/01/21 11:34:03;;;;;;;35.28;28.17;;;487.20;896.00;;;;;;5093123;28;20028;-64
2021/01/21 11:36:29;;;;;;;33.38;23.30;;;512.30;870.40;;;;;;5092923;28;20044;-66
2021/01/21 11:38:54;;;;;;;26.60;20.98;;;512.50;844.80;;;;;;5090599;28;20040;-66
2021/01/21 11:41:20;;;;;;;29.38;21.33;;;538.00;819.20;;;;;;5092357;28;20035;-67
2021/01/21 11:43:46;;;;;;;25.23;19.65;;;538.10;819.20;;;;;;5093335;28;20024;-65
2021/01/21 11:46:11;;;;;;;32.10;26.15;;;537.80;844.80;;;;;;5092987;28;20016;-66
2021/01/21 11:48:37;;;;;;;31.88;24.13;;;512.60;844.80;;;;;;5093151;28;20024;-65
2021/01/21 11:51:03;;;;;;;37.95;30.02;;;512.40;870.40;;;;;;5092371;28;20103;-65
2021/01/21 11:53:29;;;;;;;29.77;22.33;;;563.30;844.80;;;;;;5092597;28;20017;-65
2021/01/21 11:55:54;;;;;;;26.05;20.63;;;588.90;768.00;;;;;;5092476;28;20500;-65
2021/01/21 11:58:20;;;;;;;28.75;22.60;;;589.40;742.40;;;;;;5092303;28;20052;-66
2021/01/21 12:00:45;;;;;;;29.17;24.83;;;589.70;716.80;;;;;;5092078;28;20075;-65
2021/01/21 12:03:11;;;;;;;26.80;21.00;;;666.50;691.20;;;;;;5092350;28;20479;-65
2021/01/21 12:05:37;;;;;;;32.75;26.88;;;717.30;665.60;;;;;;5092856;28;20020;-65
2021/01/21 12:08:03;;;;;;;31.00;24.23;;;742.90;614.40;;;;;;5092987;28;20633;-65
2021/01/21 12:10:30;;;;;;;28.00;24.08;;;819.60;563.20;;;;;;5093109;28;20091;-66